sensor_id;sensor_type;location;lat;lon;timestamp;temperature;humidity
59505;DHT22;45321;53.200;5.814;2023-06-14T00:01:46;20.20;47.00
59505;DHT22;45321;53.200;5.814;2023-06-14T00:04:13;20.20;47.00
59505;DHT22;45321;53.200;5.814;2023-06-14T00:06:39;20.20;47.20
59505;DHT22;45321;53.200;5.814;2023-06-14T00:09:05;20.10;47.40
59505;DHT22;45321;53.200;5.814;2023-06-14T00:11:31;20.10;47.50
59505;DHT22;45321;53.200;5.814;2023-06-14T00:13:57;20.10;47.30
59505;DHT22;45321;53.200;5.814;2023-06-14T00:16:23;20.00;47.70
59505;DHT22;45321;53.200;5.814;2023-06-14T00:18:49;19.90;47.80
59505;DHT22;45321;53.200;5.814;2023-06-14T00:21:17;19.90;48.00
59505;DHT22;45321;53.200;5.814;2023-06-14T00:23:43;19.90;48.00
59505;DHT22;45321;53.200;5.814;2023-06-14T00:26:09;19.90;48.00
59505;DHT22;45321;53.200;5.814;2023-06-14T00:28:34;19.80;48.20
59505;DHT22;45321;53.200;5.814;2023-06-14T00:31:00;19.80;48.20
59505;DHT22;45321;53.200;5.814;2023-06-14T00:33:26;19.80;48.20
59505;DHT22;45321;53.200;5.814;2023-06-14T00:35:52;19.70;48.70
59505;DHT22;45321;53.200;5.814;2023-06-14T00:38:20;19.70;48.60
59505;DHT22;45321;53.200;5.814;2023-06-14T00:40:46;19.70;49.00
59505;DHT22;45321;53.200;5.814;2023-06-14T00:43:12;19.70;49.30
59505;DHT22;45321;53.200;5.814;2023-06-14T00:45:38;19.70;49.30
59505;DHT22;45321;53.200;5.814;2023-06-14T00:48:04;19.60;49.40
59505;DHT22;45321;53.200;5.814;2023-06-14T00:50:32;19.60;49.70
59505;DHT22;45321;53.200;5.814;2023-06-14T00:53:00;19.60;49.90
59505;DHT22;45321;53.200;5.814;2023-06-14T00:55:26;19.50;49.80
59505;DHT22;45321;53.200;5.814;2023-06-14T00:57:54;19.50;50.20
59505;DHT22;45321;53.200;5.814;2023-06-14T01:00:20;19.50;50.40
59505;DHT22;45321;53.200;5.814;2023-06-14T01:02:46;19.40;50.50
59505;DHT22;45321;53.200;5.814;2023-06-14T01:05:13;19.40;50.80
59505;DHT22;45321;53.200;5.814;2023-06-14T01:13:12;19.20;51.40
59505;DHT22;45321;53.200;5.814;2023-06-14T01:15:43;19.20;51.50
59505;DHT22;45321;53.200;5.814;2023-06-14T01:18:09;19.20;52.00
59505;DHT22;45321;53.200;5.814;2023-06-14T01:20:44;19.10;52.30
59505;DHT22;45321;53.200;5.814;2023-06-14T01:23:11;19.10;52.40
59505;DHT22;45321;53.200;5.814;2023-06-14T01:25:40;19.10;52.50
59505;DHT22;45321;53.200;5.814;2023-06-14T01:28:10;19.10;52.70
59505;DHT22;45321;53.200;5.814;2023-06-14T01:30:41;19.00;52.90
59505;DHT22;45321;53.200;5.814;2023-06-14T01:33:19;19.00;53.10
59505;DHT22;45321;53.200;5.814;2023-06-14T01:35:50;19.00;53.00
59505;DHT22;45321;53.200;5.814;2023-06-14T01:38:19;19.00;53.30
59505;DHT22;45321;53.200;5.814;2023-06-14T01:40:45;19.00;53.30
59505;DHT22;45321;53.200;5.814;2023-06-14T01:43:16;18.90;53.40
59505;DHT22;45321;53.200;5.814;2023-06-14T01:45:45;18.90;53.60
59505;DHT22;45321;53.200;5.814;2023-06-14T01:48:12;18.90;53.70
59505;DHT22;45321;53.200;5.814;2023-06-14T01:50:39;18.90;53.90
59505;DHT22;45321;53.200;5.814;2023-06-14T01:53:08;18.80;53.80
59505;DHT22;45321;53.200;5.814;2023-06-14T01:55:34;18.80;54.00
59505;DHT22;45321;53.200;5.814;2023-06-14T01:58:03;18.80;54.10
59505;DHT22;45321;53.200;5.814;2023-06-14T02:00:29;18.80;54.40
59505;DHT22;45321;53.200;5.814;2023-06-14T02:02:54;18.70;54.30
59505;DHT22;45321;53.200;5.814;2023-06-14T02:05:21;18.70;54.50
59505;DHT22;45321;53.200;5.814;2023-06-14T02:07:47;18.70;54.60
59505;DHT22;45321;53.200;5.814;2023-06-14T02:10:13;18.70;54.90
59505;DHT22;45321;53.200;5.814;2023-06-14T02:12:40;18.60;55.20
59505;DHT22;45321;53.200;5.814;2023-06-14T02:15:06;18.50;55.20
59505;DHT22;45321;53.200;5.814;2023-06-14T02:17:32;18.50;55.30
59505;DHT22;45321;53.200;5.814;2023-06-14T02:19:58;18.50;55.60
59505;DHT22;45321;53.200;5.814;2023-06-14T02:22:24;18.50;55.60
59505;DHT22;45321;53.200;5.814;2023-06-14T02:24:50;18.50;55.70
59505;DHT22;45321;53.200;5.814;2023-06-14T02:27:16;18.50;55.80
59505;DHT22;45321;53.200;5.814;2023-06-14T02:29:42;18.40;56.00
59505;DHT22;45321;53.200;5.814;2023-06-14T02:32:08;18.40;56.00
59505;DHT22;45321;53.200;5.814;2023-06-14T02:34:34;18.40;56.00
59505;DHT22;45321;53.200;5.814;2023-06-14T02:37:01;18.40;56.00
59505;DHT22;45321;53.200;5.814;2023-06-14T02:39:29;18.30;56.10
59505;DHT22;45321;53.200;5.814;2023-06-14T02:41:54;18.30;56.40
59505;DHT22;45321;53.200;5.814;2023-06-14T02:44:25;18.30;56.60
59505;DHT22;45321;53.200;5.814;2023-06-14T02:46:52;18.30;56.80
59505;DHT22;45321;53.200;5.814;2023-06-14T02:49:18;18.20;57.00
59505;DHT22;45321;53.200;5.814;2023-06-14T02:51:44;18.20;56.90
59505;DHT22;45321;53.200;5.814;2023-06-14T02:54:09;18.20;56.90
59505;DHT22;45321;53.200;5.814;2023-06-14T02:56:35;18.20;57.20
59505;DHT22;45321;53.200;5.814;2023-06-14T02:59:01;18.20;57.20
59505;DHT22;45321;53.200;5.814;2023-06-14T03:01:27;18.20;57.60
59505;DHT22;45321;53.200;5.814;2023-06-14T03:04:02;18.20;57.80
59505;DHT22;45321;53.200;5.814;2023-06-14T03:06:29;18.10;57.90
59505;DHT22;45321;53.200;5.814;2023-06-14T03:09:01;18.10;58.10
59505;DHT22;45321;53.200;5.814;2023-06-14T03:11:30;18.10;58.00
59505;DHT22;45321;53.200;5.814;2023-06-14T03:13:56;18.10;58.10
59505;DHT22;45321;53.200;5.814;2023-06-14T03:16:22;18.10;58.50
59505;DHT22;45321;53.200;5.814;2023-06-14T03:18:50;18.00;58.40
59505;DHT22;45321;53.200;5.814;2023-06-14T03:21:16;18.00;58.30
59505;DHT22;45321;53.200;5.814;2023-06-14T03:23:43;18.00;58.40
59505;DHT22;45321;53.200;5.814;2023-06-14T03:26:09;18.00;58.90
59505;DHT22;45321;53.200;5.814;2023-06-14T03:28:38;18.00;59.00
59505;DHT22;45321;53.200;5.814;2023-06-14T03:31:04;17.90;59.20
59505;DHT22;45321;53.200;5.814;2023-06-14T03:33:30;17.90;59.30
59505;DHT22;45321;53.200;5.814;2023-06-14T03:35:55;17.90;59.50
59505;DHT22;45321;53.200;5.814;2023-06-14T03:38:22;17.90;59.40
59505;DHT22;45321;53.200;5.814;2023-06-14T03:40:48;17.90;59.30
59505;DHT22;45321;53.200;5.814;2023-06-14T03:43:13;17.90;59.70
59505;DHT22;45321;53.200;5.814;2023-06-14T03:45:39;17.90;59.80
59505;DHT22;45321;53.200;5.814;2023-06-14T03:48:05;17.80;59.60
59505;DHT22;45321;53.200;5.814;2023-06-14T03:50:35;17.80;60.00
59505;DHT22;45321;53.200;5.814;2023-06-14T03:53:04;17.80;60.30
59505;DHT22;45321;53.200;5.814;2023-06-14T03:55:30;17.80;60.50
59505;DHT22;45321;53.200;5.814;2023-06-14T03:57:59;17.80;60.50
59505;DHT22;45321;53.200;5.814;2023-06-14T04:00:25;17.80;60.60
59505;DHT22;45321;53.200;5.814;2023-06-14T04:02:51;17.80;60.80
59505;DHT22;45321;53.200;5.814;2023-06-14T04:05:17;17.90;60.90
59505;DHT22;45321;53.200;5.814;2023-06-14T04:07:45;17.90;60.90
59505;DHT22;45321;53.200;5.814;2023-06-14T04:10:12;18.00;61.00
59505;DHT22;45321;53.200;5.814;2023-06-14T04:12:38;18.00;60.90
59505;DHT22;45321;53.200;5.814;2023-06-14T04:15:05;18.00;60.90
59505;DHT22;45321;53.200;5.814;2023-06-14T04:17:34;18.10;60.70
59505;DHT22;45321;53.200;5.814;2023-06-14T04:20:01;18.10;60.80
59505;DHT22;45321;53.200;5.814;2023-06-14T04:22:27;18.20;61.00
59505;DHT22;45321;53.200;5.814;2023-06-14T04:24:57;18.20;60.80
59505;DHT22;45321;53.200;5.814;2023-06-14T04:27:26;18.20;60.70
59505;DHT22;45321;53.200;5.814;2023-06-14T04:29:54;18.20;60.90
59505;DHT22;45321;53.200;5.814;2023-06-14T04:32:28;18.20;61.00
59505;DHT22;45321;53.200;5.814;2023-06-14T04:34:59;18.30;61.20
59505;DHT22;45321;53.200;5.814;2023-06-14T04:37:27;18.30;61.10
59505;DHT22;45321;53.200;5.814;2023-06-14T04:39:55;18.30;60.70
59505;DHT22;45321;53.200;5.814;2023-06-14T04:42:22;18.40;60.70
59505;DHT22;45321;53.200;5.814;2023-06-14T04:44:51;18.40;61.00
59505;DHT22;45321;53.200;5.814;2023-06-14T04:47:17;18.50;60.90
59505;DHT22;45321;53.200;5.814;2023-06-14T04:49:43;18.50;60.80
59505;DHT22;45321;53.200;5.814;2023-06-14T04:52:10;18.60;60.40
59505;DHT22;45321;53.200;5.814;2023-06-14T04:54:42;18.50;60.40
59505;DHT22;45321;53.200;5.814;2023-06-14T04:57:09;18.60;60.30
59505;DHT22;45321;53.200;5.814;2023-06-14T04:59:39;18.60;60.60
59505;DHT22;45321;53.200;5.814;2023-06-14T05:02:05;18.60;60.60
59505;DHT22;45321;53.200;5.814;2023-06-14T05:04:32;18.60;60.10
59505;DHT22;45321;53.200;5.814;2023-06-14T05:06:58;18.60;59.90
59505;DHT22;45321;53.200;5.814;2023-06-14T05:09:24;18.60;60.10
59505;DHT22;45321;53.200;5.814;2023-06-14T05:11:50;18.70;60.40
59505;DHT22;45321;53.200;5.814;2023-06-14T05:14:15;18.60;60.40
59505;DHT22;45321;53.200;5.814;2023-06-14T05:16:41;18.60;60.30
59505;DHT22;45321;53.200;5.814;2023-06-14T05:19:08;18.60;60.20
59505;DHT22;45321;53.200;5.814;2023-06-14T05:21:36;18.60;60.40
59505;DHT22;45321;53.200;5.814;2023-06-14T05:24:03;18.60;60.30
59505;DHT22;45321;53.200;5.814;2023-06-14T05:26:29;18.60;60.40
59505;DHT22;45321;53.200;5.814;2023-06-14T05:28:56;18.60;60.60
59505;DHT22;45321;53.200;5.814;2023-06-14T05:31:23;18.60;60.40
59505;DHT22;45321;53.200;5.814;2023-06-14T05:33:49;18.50;60.50
59505;DHT22;45321;53.200;5.814;2023-06-14T05:36:15;18.50;60.50
59505;DHT22;45321;53.200;5.814;2023-06-14T05:38:41;18.50;60.70
59505;DHT22;45321;53.200;5.814;2023-06-14T05:41:07;18.50;61.00
59505;DHT22;45321;53.200;5.814;2023-06-14T05:43:32;18.50;60.80
59505;DHT22;45321;53.200;5.814;2023-06-14T05:45:58;18.60;60.90
59505;DHT22;45321;53.200;5.814;2023-06-14T05:48:24;18.60;60.90
59505;DHT22;45321;53.200;5.814;2023-06-14T05:50:49;18.60;61.10
59505;DHT22;45321;53.200;5.814;2023-06-14T05:53:15;18.60;61.00
59505;DHT22;45321;53.200;5.814;2023-06-14T05:55:41;18.70;60.90
59505;DHT22;45321;53.200;5.814;2023-06-14T05:58:08;18.70;61.10
59505;DHT22;45321;53.200;5.814;2023-06-14T06:00:36;18.70;60.70
59505;DHT22;45321;53.200;5.814;2023-06-14T06:03:02;18.70;60.60
59505;DHT22;45321;53.200;5.814;2023-06-14T06:05:28;18.70;60.70
59505;DHT22;45321;53.200;5.814;2023-06-14T06:07:54;18.70;60.70
59505;DHT22;45321;53.200;5.814;2023-06-14T06:10:20;18.80;60.90
59505;DHT22;45321;53.200;5.814;2023-06-14T06:12:45;18.80;61.00
59505;DHT22;45321;53.200;5.814;2023-06-14T06:15:12;18.90;60.90
59505;DHT22;45321;53.200;5.814;2023-06-14T06:17:39;19.00;60.60
59505;DHT22;45321;53.200;5.814;2023-06-14T06:20:05;19.10;61.00
59505;DHT22;45321;53.200;5.814;2023-06-14T06:22:34;19.20;60.90
59505;DHT22;45321;53.200;5.814;2023-06-14T06:25:00;19.20;60.60
59505;DHT22;45321;53.200;5.814;2023-06-14T06:27:25;19.30;60.10
59505;DHT22;45321;53.200;5.814;2023-06-14T06:29:51;19.30;60.20
59505;DHT22;45321;53.200;5.814;2023-06-14T06:32:17;19.40;59.70
59505;DHT22;45321;53.200;5.814;2023-06-14T06:34:43;19.50;60.00
59505;DHT22;45321;53.200;5.814;2023-06-14T06:37:09;19.60;59.80
59505;DHT22;45321;53.200;5.814;2023-06-14T06:39:38;19.70;59.40
59505;DHT22;45321;53.200;5.814;2023-06-14T06:42:04;19.70;59.50
59505;DHT22;45321;53.200;5.814;2023-06-14T06:44:30;19.80;58.40
59505;DHT22;45321;53.200;5.814;2023-06-14T06:46:57;19.90;58.00
59505;DHT22;45321;53.200;5.814;2023-06-14T06:49:23;19.90;58.30
59505;DHT22;45321;53.200;5.814;2023-06-14T06:52:04;20.00;57.80
59505;DHT22;45321;53.200;5.814;2023-06-14T06:54:30;20.00;57.90
59505;DHT22;45321;53.200;5.814;2023-06-14T06:56:56;20.20;57.70
59505;DHT22;45321;53.200;5.814;2023-06-14T06:59:22;20.20;57.10
59505;DHT22;45321;53.200;5.814;2023-06-14T07:01:47;20.20;56.50
59505;DHT22;45321;53.200;5.814;2023-06-14T07:04:13;20.30;56.30
59505;DHT22;45321;53.200;5.814;2023-06-14T07:06:39;20.40;56.70
59505;DHT22;45321;53.200;5.814;2023-06-14T07:09:05;20.50;56.20
59505;DHT22;45321;53.200;5.814;2023-06-14T07:11:38;20.60;55.90
59505;DHT22;45321;53.200;5.814;2023-06-14T07:14:03;20.60;55.60
59505;DHT22;45321;53.200;5.814;2023-06-14T07:16:30;20.70;56.50
59505;DHT22;45321;53.200;5.814;2023-06-14T07:18:55;20.70;56.00
59505;DHT22;45321;53.200;5.814;2023-06-14T07:21:21;20.80;55.70
59505;DHT22;45321;53.200;5.814;2023-06-14T07:23:50;20.90;54.50
59505;DHT22;45321;53.200;5.814;2023-06-14T07:26:16;20.90;54.50
59505;DHT22;45321;53.200;5.814;2023-06-14T07:28:41;21.00;54.90
59505;DHT22;45321;53.200;5.814;2023-06-14T07:31:10;21.10;54.90
59505;DHT22;45321;53.200;5.814;2023-06-14T07:33:38;21.20;54.00
59505;DHT22;45321;53.200;5.814;2023-06-14T07:36:06;21.30;53.70
59505;DHT22;45321;53.200;5.814;2023-06-14T07:38:33;21.40;53.10
59505;DHT22;45321;53.200;5.814;2023-06-14T07:40:59;21.40;51.60
59505;DHT22;45321;53.200;5.814;2023-06-14T07:43:25;21.50;52.00
59505;DHT22;45321;53.200;5.814;2023-06-14T07:45:51;21.50;51.80
59505;DHT22;45321;53.200;5.814;2023-06-14T07:48:17;21.60;51.30
59505;DHT22;45321;53.200;5.814;2023-06-14T07:50:43;21.70;51.50
59505;DHT22;45321;53.200;5.814;2023-06-14T07:53:09;21.70;52.00
59505;DHT22;45321;53.200;5.814;2023-06-14T07:55:35;21.80;51.50
59505;DHT22;45321;53.200;5.814;2023-06-14T07:58:06;21.90;51.90
59505;DHT22;45321;53.200;5.814;2023-06-14T08:00:32;21.90;52.30
59505;DHT22;45321;53.200;5.814;2023-06-14T08:02:58;21.90;52.20
59505;DHT22;45321;53.200;5.814;2023-06-14T08:05:27;22.00;51.40
59505;DHT22;45321;53.200;5.814;2023-06-14T08:07:53;21.90;51.40
59505;DHT22;45321;53.200;5.814;2023-06-14T08:10:19;21.90;51.30
59505;DHT22;45321;53.200;5.814;2023-06-14T08:12:45;22.00;50.80
59505;DHT22;45321;53.200;5.814;2023-06-14T08:15:11;22.00;51.70
59505;DHT22;45321;53.200;5.814;2023-06-14T08:17:37;22.10;51.80
59505;DHT22;45321;53.200;5.814;2023-06-14T08:20:04;22.10;51.30
59505;DHT22;45321;53.200;5.814;2023-06-14T08:22:31;22.20;51.60
59505;DHT22;45321;53.200;5.814;2023-06-14T08:25:02;22.20;51.40
59505;DHT22;45321;53.200;5.814;2023-06-14T08:27:29;22.20;50.70
59505;DHT22;45321;53.200;5.814;2023-06-14T08:29:55;22.20;51.00
59505;DHT22;45321;53.200;5.814;2023-06-14T08:32:22;22.30;51.10
59505;DHT22;45321;53.200;5.814;2023-06-14T08:34:47;22.30;50.80
59505;DHT22;45321;53.200;5.814;2023-06-14T08:37:13;22.40;50.90
59505;DHT22;45321;53.200;5.814;2023-06-14T08:39:39;22.40;50.60
59505;DHT22;45321;53.200;5.814;2023-06-14T08:42:06;22.50;50.80
59505;DHT22;45321;53.200;5.814;2023-06-14T08:44:33;22.50;50.90
59505;DHT22;45321;53.200;5.814;2023-06-14T08:46:59;22.50;50.90
59505;DHT22;45321;53.200;5.814;2023-06-14T08:49:26;22.60;50.60
59505;DHT22;45321;53.200;5.814;2023-06-14T08:52:00;22.60;50.40
59505;DHT22;45321;53.200;5.814;2023-06-14T08:54:28;22.70;49.80
59505;DHT22;45321;53.200;5.814;2023-06-14T08:56:56;22.70;50.00
59505;DHT22;45321;53.200;5.814;2023-06-14T08:59:26;22.70;49.90
59505;DHT22;45321;53.200;5.814;2023-06-14T09:01:53;22.80;49.40
59505;DHT22;45321;53.200;5.814;2023-06-14T09:04:22;22.80;49.20
59505;DHT22;45321;53.200;5.814;2023-06-14T09:06:49;22.80;49.60
59505;DHT22;45321;53.200;5.814;2023-06-14T09:09:22;22.90;49.30
59505;DHT22;45321;53.200;5.814;2023-06-14T09:11:54;23.00;49.60
59505;DHT22;45321;53.200;5.814;2023-06-14T09:14:23;22.90;50.00
59505;DHT22;45321;53.200;5.814;2023-06-14T09:16:52;23.00;49.30
59505;DHT22;45321;53.200;5.814;2023-06-14T09:19:24;23.10;48.70
59505;DHT22;45321;53.200;5.814;2023-06-14T09:21:51;23.10;49.00
59505;DHT22;45321;53.200;5.814;2023-06-14T09:24:18;23.20;48.50
59505;DHT22;45321;53.200;5.814;2023-06-14T09:26:47;23.20;48.60
59505;DHT22;45321;53.200;5.814;2023-06-14T09:29:13;23.20;47.60
59505;DHT22;45321;53.200;5.814;2023-06-14T09:31:39;23.20;48.00
59505;DHT22;45321;53.200;5.814;2023-06-14T09:34:05;23.30;48.20
59505;DHT22;45321;53.200;5.814;2023-06-14T09:36:32;23.30;48.40
59505;DHT22;45321;53.200;5.814;2023-06-14T09:39:04;23.40;48.50
59505;DHT22;45321;53.200;5.814;2023-06-14T09:41:35;23.50;47.60
59505;DHT22;45321;53.200;5.814;2023-06-14T09:44:02;23.50;48.00
59505;DHT22;45321;53.200;5.814;2023-06-14T09:46:28;23.60;47.90
59505;DHT22;45321;53.200;5.814;2023-06-14T09:48:57;23.70;47.10
59505;DHT22;45321;53.200;5.814;2023-06-14T09:51:24;23.70;47.30
59505;DHT22;45321;53.200;5.814;2023-06-14T09:53:50;23.70;46.90
59505;DHT22;45321;53.200;5.814;2023-06-14T09:56:27;23.70;46.40
59505;DHT22;45321;53.200;5.814;2023-06-14T09:58:57;23.80;46.80
59505;DHT22;45321;53.200;5.814;2023-06-14T10:01:29;23.80;46.50
59505;DHT22;45321;53.200;5.814;2023-06-14T10:04:05;23.90;45.70
59505;DHT22;45321;53.200;5.814;2023-06-14T10:06:34;23.90;46.00
59505;DHT22;45321;53.200;5.814;2023-06-14T10:09:04;24.00;46.10
59505;DHT22;45321;53.200;5.814;2023-06-14T10:11:31;24.00;46.50
59505;DHT22;45321;53.200;5.814;2023-06-14T10:13:58;24.00;46.20
59505;DHT22;45321;53.200;5.814;2023-06-14T10:16:52;24.10;45.90
59505;DHT22;45321;53.200;5.814;2023-06-14T10:24:55;24.30;45.70
59505;DHT22;45321;53.200;5.814;2023-06-14T10:27:21;24.30;46.10
59505;DHT22;45321;53.200;5.814;2023-06-14T10:32:20;24.50;45.90
59505;DHT22;45321;53.200;5.814;2023-06-14T10:34:57;24.50;46.20
59505;DHT22;45321;53.200;5.814;2023-06-14T10:37:23;24.60;45.20
59505;DHT22;45321;53.200;5.814;2023-06-14T10:39:50;24.70;45.50
59505;DHT22;45321;53.200;5.814;2023-06-14T10:42:16;24.70;45.10
59505;DHT22;45321;53.200;5.814;2023-06-14T10:44:52;24.70;45.30
59505;DHT22;45321;53.200;5.814;2023-06-14T10:47:37;24.70;45.60
59505;DHT22;45321;53.200;5.814;2023-06-14T10:50:09;24.80;45.30
59505;DHT22;45321;53.200;5.814;2023-06-14T10:52:39;24.80;46.10
59505;DHT22;45321;53.200;5.814;2023-06-14T10:55:14;24.90;46.90
59505;DHT22;45321;53.200;5.814;2023-06-14T10:57:51;25.00;45.50
59505;DHT22;45321;53.200;5.814;2023-06-14T11:00:21;25.10;45.30
59505;DHT22;45321;53.200;5.814;2023-06-14T11:05:55;25.20;44.50
59505;DHT22;45321;53.200;5.814;2023-06-14T11:11:06;25.30;44.90
59505;DHT22;45321;53.200;5.814;2023-06-14T11:13:33;25.30;45.50
59505;DHT22;45321;53.200;5.814;2023-06-14T11:16:00;25.30;45.60
59505;DHT22;45321;53.200;5.814;2023-06-14T11:18:25;25.40;45.30
59505;DHT22;45321;53.200;5.814;2023-06-14T11:20:53;25.40;44.70
59505;DHT22;45321;53.200;5.814;2023-06-14T11:23:19;25.40;45.80
59505;DHT22;45321;53.200;5.814;2023-06-14T11:25:53;25.50;45.40
59505;DHT22;45321;53.200;5.814;2023-06-14T11:28:19;25.50;45.30
59505;DHT22;45321;53.200;5.814;2023-06-14T11:30:59;25.60;44.40
59505;DHT22;45321;53.200;5.814;2023-06-14T11:33:25;25.70;44.60
59505;DHT22;45321;53.200;5.814;2023-06-14T11:35:51;25.70;44.00
59505;DHT22;45321;53.200;5.814;2023-06-14T11:38:17;25.70;44.00
59505;DHT22;45321;53.200;5.814;2023-06-14T11:40:43;25.80;43.70
59505;DHT22;45321;53.200;5.814;2023-06-14T11:43:09;25.90;44.00
59505;DHT22;45321;53.200;5.814;2023-06-14T11:45:35;26.00;43.60
59505;DHT22;45321;53.200;5.814;2023-06-14T11:48:01;26.10;43.40
59505;DHT22;45321;53.200;5.814;2023-06-14T11:50:27;26.20;43.70
59505;DHT22;45321;53.200;5.814;2023-06-14T11:52:58;26.20;43.50
59505;DHT22;45321;53.200;5.814;2023-06-14T11:55:37;26.20;43.10
59505;DHT22;45321;53.200;5.814;2023-06-14T11:58:03;26.20;42.90
59505;DHT22;45321;53.200;5.814;2023-06-14T12:00:30;26.30;43.20
59505;DHT22;45321;53.200;5.814;2023-06-14T12:02:56;26.30;43.10
59505;DHT22;45321;53.200;5.814;2023-06-14T12:05:23;26.40;43.30
59505;DHT22;45321;53.200;5.814;2023-06-14T12:07:50;26.40;42.30
59505;DHT22;45321;53.200;5.814;2023-06-14T12:10:19;26.40;42.20
59505;DHT22;45321;53.200;5.814;2023-06-14T12:12:45;26.50;42.20
59505;DHT22;45321;53.200;5.814;2023-06-14T12:15:11;26.50;43.10
59505;DHT22;45321;53.200;5.814;2023-06-14T12:17:38;26.50;42.50
59505;DHT22;45321;53.200;5.814;2023-06-14T12:20:11;26.60;41.40
59505;DHT22;45321;53.200;5.814;2023-06-14T12:22:55;26.60;41.80
59505;DHT22;45321;53.200;5.814;2023-06-14T12:25:28;26.70;42.40
59505;DHT22;45321;53.200;5.814;2023-06-14T12:27:57;26.60;41.80
59505;DHT22;45321;53.200;5.814;2023-06-14T12:30:23;26.60;41.40
59505;DHT22;45321;53.200;5.814;2023-06-14T12:32:49;26.60;41.60
59505;DHT22;45321;53.200;5.814;2023-06-14T12:35:20;26.60;41.80
59505;DHT22;45321;53.200;5.814;2023-06-14T12:37:46;26.60;42.30
59505;DHT22;45321;53.200;5.814;2023-06-14T12:40:13;26.60;42.60
59505;DHT22;45321;53.200;5.814;2023-06-14T12:42:38;26.70;42.90
59505;DHT22;45321;53.200;5.814;2023-06-14T12:45:05;26.70;41.40
59505;DHT22;45321;53.200;5.814;2023-06-14T12:47:31;26.70;41.70
59505;DHT22;45321;53.200;5.814;2023-06-14T12:49:56;26.80;42.10
59505;DHT22;45321;53.200;5.814;2023-06-14T12:52:22;26.80;41.20
59505;DHT22;45321;53.200;5.814;2023-06-14T12:54:48;26.80;41.10
59505;DHT22;45321;53.200;5.814;2023-06-14T12:57:14;26.90;41.60
59505;DHT22;45321;53.200;5.814;2023-06-14T12:59:39;26.90;41.60
59505;DHT22;45321;53.200;5.814;2023-06-14T13:02:19;27.00;41.10
59505;DHT22;45321;53.200;5.814;2023-06-14T13:04:46;27.10;41.40
59505;DHT22;45321;53.200;5.814;2023-06-14T13:07:11;27.10;42.30
59505;DHT22;45321;53.200;5.814;2023-06-14T13:09:37;27.20;43.70
59505;DHT22;45321;53.200;5.814;2023-06-14T13:12:03;27.20;44.70
59505;DHT22;45321;53.200;5.814;2023-06-14T13:14:30;27.20;45.40
59505;DHT22;45321;53.200;5.814;2023-06-14T13:16:56;27.20;45.60
59505;DHT22;45321;53.200;5.814;2023-06-14T13:19:22;27.30;45.90
59505;DHT22;45321;53.200;5.814;2023-06-14T13:21:48;27.30;46.10
59505;DHT22;45321;53.200;5.814;2023-06-14T13:24:14;27.40;46.10
59505;DHT22;45321;53.200;5.814;2023-06-14T13:26:40;27.40;46.10
59505;DHT22;45321;53.200;5.814;2023-06-14T13:29:05;27.30;46.10
59505;DHT22;45321;53.200;5.814;2023-06-14T13:31:31;27.30;46.00
59505;DHT22;45321;53.200;5.814;2023-06-14T13:33:57;27.30;46.10
59505;DHT22;45321;53.200;5.814;2023-06-14T13:36:25;27.40;46.10
59505;DHT22;45321;53.200;5.814;2023-06-14T13:38:51;27.40;46.30
59505;DHT22;45321;53.200;5.814;2023-06-14T13:41:18;27.40;46.20
59505;DHT22;45321;53.200;5.814;2023-06-14T13:43:44;27.40;46.40
59505;DHT22;45321;53.200;5.814;2023-06-14T13:46:09;27.30;46.30
59505;DHT22;45321;53.200;5.814;2023-06-14T13:48:35;27.20;46.50
59505;DHT22;45321;53.200;5.814;2023-06-14T13:51:01;27.20;46.60
59505;DHT22;45321;53.200;5.814;2023-06-14T13:53:29;27.20;47.00
59505;DHT22;45321;53.200;5.814;2023-06-14T13:55:55;27.20;47.00
59505;DHT22;45321;53.200;5.814;2023-06-14T13:58:24;27.20;47.10
59505;DHT22;45321;53.200;5.814;2023-06-14T14:00:50;27.30;47.20
59505;DHT22;45321;53.200;5.814;2023-06-14T14:03:15;27.40;47.50
59505;DHT22;45321;53.200;5.814;2023-06-14T14:05:41;27.50;47.30
59505;DHT22;45321;53.200;5.814;2023-06-14T14:08:07;27.50;47.00
59505;DHT22;45321;53.200;5.814;2023-06-14T14:10:33;27.60;47.10
59505;DHT22;45321;53.200;5.814;2023-06-14T14:12:58;27.60;47.00
59505;DHT22;45321;53.200;5.814;2023-06-14T14:15:25;27.70;46.90
59505;DHT22;45321;53.200;5.814;2023-06-14T14:17:51;27.60;46.90
59505;DHT22;45321;53.200;5.814;2023-06-14T14:20:17;27.60;46.90
59505;DHT22;45321;53.200;5.814;2023-06-14T14:22:43;27.60;47.00
59505;DHT22;45321;53.200;5.814;2023-06-14T14:25:09;27.60;47.00
59505;DHT22;45321;53.200;5.814;2023-06-14T14:27:36;27.70;47.10
59505;DHT22;45321;53.200;5.814;2023-06-14T14:30:03;27.70;46.80
59505;DHT22;45321;53.200;5.814;2023-06-14T14:32:30;27.70;46.40
59505;DHT22;45321;53.200;5.814;2023-06-14T14:34:55;27.60;46.70
59505;DHT22;45321;53.200;5.814;2023-06-14T14:37:21;27.70;47.10
59505;DHT22;45321;53.200;5.814;2023-06-14T14:39:47;27.70;46.70
59505;DHT22;45321;53.200;5.814;2023-06-14T14:42:12;27.70;47.00
59505;DHT22;45321;53.200;5.814;2023-06-14T14:44:39;27.70;46.80
59505;DHT22;45321;53.200;5.814;2023-06-14T14:47:05;27.70;46.70
59505;DHT22;45321;53.200;5.814;2023-06-14T14:49:32;27.80;46.50
59505;DHT22;45321;53.200;5.814;2023-06-14T14:51:58;27.80;46.40
59505;DHT22;45321;53.200;5.814;2023-06-14T14:54:23;27.80;46.30
59505;DHT22;45321;53.200;5.814;2023-06-14T14:56:51;27.80;46.30
59505;DHT22;45321;53.200;5.814;2023-06-14T14:59:16;27.80;46.20
59505;DHT22;45321;53.200;5.814;2023-06-14T15:01:43;27.70;46.10
59505;DHT22;45321;53.200;5.814;2023-06-14T15:04:08;27.70;46.60
59505;DHT22;45321;53.200;5.814;2023-06-14T15:06:34;27.70;46.10
59505;DHT22;45321;53.200;5.814;2023-06-14T15:09:01;27.80;46.20
59505;DHT22;45321;53.200;5.814;2023-06-14T15:11:27;27.90;46.00
59505;DHT22;45321;53.200;5.814;2023-06-14T15:13:53;28.10;45.60
59505;DHT22;45321;53.200;5.814;2023-06-14T15:16:19;28.20;45.60
59505;DHT22;45321;53.200;5.814;2023-06-14T15:18:45;28.30;45.20
59505;DHT22;45321;53.200;5.814;2023-06-14T15:21:11;28.40;45.50
59505;DHT22;45321;53.200;5.814;2023-06-14T15:23:37;28.60;44.70
59505;DHT22;45321;53.200;5.814;2023-06-14T15:26:03;28.80;44.20
59505;DHT22;45321;53.200;5.814;2023-06-14T15:28:29;29.00;44.00
59505;DHT22;45321;53.200;5.814;2023-06-14T15:30:55;29.00;44.30
59505;DHT22;45321;53.200;5.814;2023-06-14T15:33:22;28.90;44.30
59505;DHT22;45321;53.200;5.814;2023-06-14T15:35:48;28.70;44.50
59505;DHT22;45321;53.200;5.814;2023-06-14T15:38:13;28.50;44.60
59505;DHT22;45321;53.200;5.814;2023-06-14T15:40:39;28.40;45.10
59505;DHT22;45321;53.200;5.814;2023-06-14T15:43:05;28.20;45.20
59505;DHT22;45321;53.200;5.814;2023-06-14T15:45:31;28.20;45.30
59505;DHT22;45321;53.200;5.814;2023-06-14T15:47:57;28.10;45.20
59505;DHT22;45321;53.200;5.814;2023-06-14T15:50:23;27.90;45.70